createdAt,value
2023-01-26T00:02:10.011Z,-2.84
2023-01-26T00:04:42.533Z,-2.90
2023-01-26T00:07:14.560Z,-2.75
2023-01-26T00:09:47.302Z,-2.90
2023-01-26T00:12:19.579Z,-2.87
2023-01-26T00:14:51.595Z,-2.94
2023-01-26T00:17:26.488Z,-2.92
2023-01-26T00:19:58.571Z,-2.95
2023-01-26T00:22:30.878Z,-3.02
2023-01-26T00:25:03.883Z,-2.92
2023-01-26T00:27:36.063Z,-2.97
2023-01-26T00:30:08.792Z,-2.94
2023-01-26T00:32:41.228Z,-2.91
2023-01-26T00:35:14.779Z,-2.92
2023-01-26T00:37:46.881Z,-3.05
2023-01-26T00:40:20.668Z,-3.10
2023-01-26T00:42:53.879Z,-3.21
2023-01-26T00:45:27.209Z,-3.17
2023-01-26T00:48:00.037Z,-3.19
2023-01-26T00:50:34.306Z,-3.19
2023-01-26T00:53:06.430Z,-3.22
2023-01-26T00:55:39.218Z,-3.28
2023-01-26T00:58:11.590Z,-3.12
2023-01-26T01:00:43.823Z,-3.10
2023-01-26T01:03:15.870Z,-3.06
2023-01-26T01:05:48.795Z,-3.06
2023-01-26T01:08:20.912Z,-3.03
2023-01-26T01:11:02.748Z,-3.16
2023-01-26T01:13:35.208Z,-3.15
2023-01-26T01:16:07.947Z,-3.14
2023-01-26T01:18:40.230Z,-3.25
2023-01-26T01:21:13.460Z,-3.21
2023-01-26T01:23:45.528Z,-3.23
2023-01-26T01:26:18.201Z,-3.25
2023-01-26T01:28:53.044Z,-3.18
2023-01-26T01:31:25.296Z,-3.16
2023-01-26T01:33:57.423Z,-3.19
2023-01-26T01:36:30.581Z,-3.16
2023-01-26T01:39:02.654Z,-3.11
2023-01-26T01:41:35.444Z,-3.04
2023-01-26T01:44:11.583Z,-3.01
2023-01-26T01:46:45.530Z,-3.08
2023-01-26T01:49:19.494Z,-3.12
2023-01-26T01:51:53.893Z,-3.05
2023-01-26T01:54:28.628Z,-3.07
2023-01-26T01:57:03.094Z,-3.04
2023-01-26T01:59:35.198Z,-3.04
2023-01-26T02:02:07.612Z,-3.05
2023-01-26T02:04:39.657Z,-2.96
2023-01-26T02:07:12.294Z,-3.03
2023-01-26T02:10:03.642Z,-3.17
2023-01-26T02:12:36.571Z,-3.16
2023-01-26T02:15:08.806Z,-3.07
2023-01-26T02:17:41.193Z,-3.13
2023-01-26T02:20:18.296Z,-3.10
2023-01-26T02:22:55.777Z,-3.11
2023-01-26T02:25:32.740Z,-3.12
2023-01-26T02:28:06.364Z,-3.15
2023-01-26T02:30:38.994Z,-3.13
2023-01-26T02:33:14.411Z,-3.13
2023-01-26T02:35:46.638Z,-3.20
2023-01-26T02:38:19.847Z,-3.24
2023-01-26T02:40:53.845Z,-3.28
2023-01-26T02:43:27.239Z,-3.42
2023-01-26T02:45:59.363Z,-3.37
2023-01-26T02:48:51.058Z,-3.44
2023-01-26T02:51:23.258Z,-3.45
2023-01-26T02:53:55.523Z,-3.47
2023-01-26T02:56:27.396Z,-3.40
2023-01-26T02:59:00.948Z,-3.40
2023-01-26T03:01:33.131Z,-3.31
2023-01-26T03:04:05.512Z,-3.21
2023-01-26T03:06:37.690Z,-3.28
2023-01-26T03:09:10.067Z,-3.24
2023-01-26T03:11:42.192Z,-3.33
2023-01-26T03:14:15.088Z,-3.28
2023-01-26T03:16:47.240Z,-3.26
2023-01-26T03:19:37.575Z,-3.23
2023-01-26T03:22:32.264Z,-3.28
2023-01-26T03:25:37.094Z,-3.23
2023-01-26T03:28:09.304Z,-3.28
2023-01-26T03:30:42.073Z,-3.26
2023-01-26T03:33:14.244Z,-3.32
2023-01-26T03:35:47.036Z,-3.29
2023-01-26T03:38:19.212Z,-3.41
2023-01-26T03:41:15.324Z,-3.29
2023-01-26T03:44:05.797Z,-3.32
2023-01-26T03:46:57.221Z,-3.13
2023-01-26T03:49:48.068Z,-3.14
2023-01-26T03:52:38.476Z,-3.15
2023-01-26T03:55:29.019Z,-3.23
2023-01-26T03:58:01.536Z,-3.26
2023-01-26T04:00:34.858Z,-3.27
2023-01-26T04:03:26.211Z,-3.24
2023-01-26T04:06:16.850Z,-3.24
2023-01-26T04:08:53.158Z,-3.20
2023-01-26T04:11:25.222Z,-3.28
2023-01-26T04:14:15.621Z,-3.31
2023-01-26T04:17:05.839Z,-3.38
2023-01-26T04:19:56.906Z,-3.30
2023-01-26T04:22:29.014Z,-3.35
2023-01-26T04:25:01.970Z,-3.30
2023-01-26T04:27:34.538Z,-3.45
2023-01-26T04:30:09.336Z,-3.49
2023-01-26T04:32:41.924Z,-3.49
2023-01-26T04:35:14.704Z,-3.41
2023-01-26T04:37:48.401Z,-3.43
2023-01-26T04:40:20.552Z,-3.39
2023-01-26T04:42:53.525Z,-3.27
2023-01-26T04:45:25.672Z,-3.29
2023-01-26T04:47:59.643Z,-3.22
2023-01-26T04:50:32.402Z,-3.32
2023-01-26T04:53:05.321Z,-3.31
2023-01-26T04:55:37.519Z,-3.28
2023-01-26T04:58:09.545Z,-3.08
2023-01-26T05:00:42.111Z,-3.04
2023-01-26T05:03:14.637Z,-3.00
2023-01-26T05:05:48.869Z,-2.94
2023-01-26T05:08:22.000Z,-2.88
2023-01-26T05:10:54.839Z,-2.88
2023-01-26T05:13:51.419Z,-2.81
2023-01-26T05:16:42.086Z,-2.85
2023-01-26T05:19:36.317Z,-2.84
2023-01-26T05:22:24.697Z,-2.78
2023-01-26T05:25:17.165Z,-2.81
2023-01-26T05:27:59.820Z,-2.79
2023-01-26T05:30:32.953Z,-2.68
2023-01-26T05:33:07.466Z,-2.68
2023-01-26T05:35:39.551Z,-2.68
2023-01-26T05:38:14.891Z,-2.68
2023-01-26T05:40:47.003Z,-2.58
2023-01-26T05:43:20.193Z,-2.59
2023-01-26T05:46:10.497Z,-2.56
2023-01-26T05:48:46.760Z,-2.65
2023-01-26T05:51:18.999Z,-2.63
2023-01-26T05:53:52.245Z,-2.61
2023-01-26T05:56:24.293Z,-2.72
2023-01-26T05:59:01.550Z,-2.73
2023-01-26T06:01:34.099Z,-2.85
2023-01-26T06:04:10.125Z,-2.82
2023-01-26T06:06:54.563Z,-2.78
2023-01-26T06:09:34.718Z,-2.72
2023-01-26T06:12:07.459Z,-2.70
2023-01-26T06:15:12.358Z,-2.69
2023-01-26T06:17:48.791Z,-2.73
2023-01-26T06:20:22.810Z,-2.78
2023-01-26T06:23:01.524Z,-2.72
2023-01-26T06:25:38.905Z,-2.66
2023-01-26T06:28:11.058Z,-2.75
2023-01-26T06:30:43.361Z,-2.72
2023-01-26T06:33:17.194Z,-2.75
2023-01-26T06:35:51.113Z,-2.73
2023-01-26T06:38:23.200Z,-2.71
2023-01-26T06:40:58.866Z,-2.62
2023-01-26T06:43:39.143Z,-2.60
2023-01-26T06:46:11.359Z,-2.61
2023-01-26T06:48:43.701Z,-2.54
2023-01-26T06:51:34.796Z,-2.50
2023-01-26T06:54:09.556Z,-2.61
2023-01-26T06:56:47.210Z,-2.60
2023-01-26T06:59:32.513Z,-2.54
2023-01-26T07:02:23.178Z,-2.54
2023-01-26T07:04:55.504Z,-2.59
2023-01-26T07:07:28.530Z,-2.53
2023-01-26T07:10:01.044Z,-2.33
2023-01-26T07:12:40.776Z,-2.25
2023-01-26T07:15:12.972Z,-2.08
2023-01-26T07:17:44.967Z,-1.97
2023-01-26T07:20:17.122Z,-1.91
2023-01-26T07:22:49.724Z,-1.84
2023-01-26T07:25:21.880Z,-1.73
2023-01-26T07:27:58.045Z,-1.60
2023-01-26T07:30:30.167Z,-1.52
2023-01-26T07:33:02.714Z,-1.40
2023-01-26T07:35:34.805Z,-1.28
2023-01-26T07:38:06.910Z,-1.12
2023-01-26T07:40:38.995Z,-1.08
2023-01-26T07:43:11.838Z,-0.95
2023-01-26T07:45:53.200Z,-0.86
2023-01-26T07:48:25.375Z,-0.79
2023-01-26T07:51:00.947Z,-0.67
2023-01-26T07:53:38.547Z,-0.64
2023-01-26T07:56:11.923Z,-0.63
2023-01-26T07:58:48.393Z,-0.67
2023-01-26T08:01:21.188Z,-0.63
2023-01-26T08:03:53.258Z,-0.60
2023-01-26T08:06:25.419Z,-0.62
2023-01-26T08:08:57.734Z,-0.55
2023-01-26T08:11:29.846Z,-0.61
2023-01-26T08:14:02.665Z,-0.54
2023-01-26T08:16:34.871Z,-0.56
2023-01-26T08:19:06.997Z,-0.53
2023-01-26T08:21:39.064Z,-0.48
2023-01-26T08:24:11.616Z,-0.61
2023-01-26T08:26:43.944Z,-0.73
2023-01-26T08:29:17.056Z,-0.61
2023-01-26T08:31:49.242Z,-0.51
2023-01-26T08:34:21.829Z,-0.55
2023-01-26T08:36:53.854Z,-0.53
2023-01-26T08:39:25.906Z,-0.55
2023-01-26T08:41:57.988Z,-0.47
2023-01-26T08:44:30.667Z,-0.36
2023-01-26T08:47:02.850Z,-0.42
2023-01-26T08:49:35.625Z,-0.34
2023-01-26T08:52:07.734Z,-0.36
2023-01-26T08:54:39.865Z,-0.35
2023-01-26T08:57:11.974Z,-0.31
2023-01-26T08:59:44.671Z,-0.26
2023-01-26T09:02:16.895Z,-0.32
2023-01-26T09:04:48.977Z,-0.32
2023-01-26T09:07:21.055Z,-0.37
2023-01-26T09:09:53.062Z,-0.53
2023-01-26T09:12:25.090Z,-0.50
2023-01-26T09:14:57.768Z,-0.50
2023-01-26T09:17:29.813Z,-0.52
2023-01-26T09:20:01.885Z,-0.53
2023-01-26T09:22:34.056Z,-0.50
2023-01-26T09:25:06.598Z,-0.34
2023-01-26T09:27:38.692Z,-0.23
2023-01-26T09:30:12.333Z,-0.12
2023-01-26T09:32:44.575Z,-0.06
2023-01-26T09:35:16.963Z,0.04
2023-01-26T09:37:49.235Z,0.09
2023-01-26T09:40:24.528Z,0.13
2023-01-26T09:43:04.980Z,0.17
2023-01-26T09:45:41.075Z,0.19
2023-01-26T09:48:21.415Z,0.15
2023-01-26T09:50:57.792Z,0.10
2023-01-26T09:53:38.216Z,0.04
2023-01-26T09:56:13.123Z,0.13
2023-01-26T09:58:47.097Z,0.07
2023-01-26T10:01:24.277Z,0.10
2023-01-26T10:04:00.912Z,0.15
2023-01-26T10:06:34.135Z,0.22
2023-01-26T10:09:15.661Z,0.23
2023-01-26T10:11:48.817Z,0.17
2023-01-26T10:14:24.806Z,0.21
2023-01-26T10:16:59.404Z,0.06
2023-01-26T10:19:34.521Z,-0.03
2023-01-26T10:22:10.262Z,0.04
2023-01-26T10:24:42.587Z,0.03
2023-01-26T10:27:14.639Z,0.09
2023-01-26T10:29:46.729Z,0.15
2023-01-26T10:32:19.712Z,-0.04
2023-01-26T10:34:52.611Z,0.06
2023-01-26T10:37:27.795Z,-0.01
2023-01-26T10:40:01.023Z,-0.09
2023-01-26T10:42:34.076Z,-0.34
2023-01-26T10:45:23.019Z,-0.44
2023-01-26T10:48:06.100Z,-0.42
2023-01-26T10:50:38.293Z,-0.25
2023-01-26T10:53:14.351Z,-0.33
2023-01-26T10:55:57.777Z,-0.23
2023-01-26T10:58:43.403Z,-0.19
2023-01-26T11:01:18.090Z,-0.02
2023-01-26T11:03:59.902Z,0.10
2023-01-26T11:06:33.056Z,0.13
2023-01-26T11:09:09.530Z,0.17
2023-01-26T11:11:41.874Z,0.24
2023-01-26T11:14:15.340Z,0.29
2023-01-26T11:16:49.132Z,0.33
2023-01-26T11:19:31.743Z,0.21
2023-01-26T11:22:05.397Z,0.29
2023-01-26T11:24:42.636Z,0.40
2023-01-26T11:27:20.200Z,0.49
2023-01-26T11:30:09.729Z,0.55
2023-01-26T11:32:46.331Z,0.61
2023-01-26T11:35:22.946Z,0.63
2023-01-26T11:37:59.065Z,0.69
2023-01-26T11:40:34.525Z,0.72
2023-01-26T11:43:13.324Z,0.77
2023-01-26T11:45:57.073Z,0.82
2023-01-26T11:48:36.220Z,0.69
2023-01-26T11:51:14.961Z,0.68
2023-01-26T11:54:08.191Z,0.72
2023-01-26T11:56:43.904Z,0.72
2023-01-26T11:59:17.887Z,0.70
2023-01-26T12:01:52.768Z,0.71
2023-01-26T12:04:24.984Z,0.76
2023-01-26T12:07:01.592Z,0.78
2023-01-26T12:09:38.016Z,0.66
2023-01-26T12:12:11.861Z,0.71
2023-01-26T12:14:47.267Z,0.79
2023-01-26T12:17:30.203Z,0.75
2023-01-26T12:20:11.482Z,0.75
2023-01-26T12:22:47.058Z,0.74
2023-01-26T12:25:27.973Z,0.74
2023-01-26T12:28:04.440Z,0.65
2023-01-26T12:30:40.670Z,0.63
2023-01-26T12:33:13.207Z,0.38
2023-01-26T12:35:50.290Z,0.08
2023-01-26T12:38:28.598Z,0.12
2023-01-26T12:41:05.528Z,0.21
2023-01-26T12:43:43.098Z,0.35
2023-01-26T12:46:17.040Z,0.34
2023-01-26T12:48:53.365Z,0.35
2023-01-26T12:51:26.955Z,0.29
2023-01-26T12:54:03.757Z,0.34
2023-01-26T12:56:39.737Z,0.46
2023-01-26T12:59:39.463Z,0.57
2023-01-26T13:02:19.912Z,0.63
2023-01-26T13:04:52.452Z,0.53
2023-01-26T13:07:32.581Z,0.59
2023-01-26T13:10:22.717Z,0.62
2023-01-26T13:12:56.157Z,0.36
2023-01-26T13:15:29.628Z,0.29
2023-01-26T13:18:02.320Z,0.29
2023-01-26T13:20:44.437Z,0.47
2023-01-26T13:23:51.507Z,0.51
2023-01-26T13:26:41.370Z,0.53
2023-01-26T13:29:33.184Z,0.59
2023-01-26T13:32:23.892Z,0.59
2023-01-26T13:34:57.455Z,0.57
2023-01-26T13:37:33.251Z,0.48
2023-01-26T13:40:14.253Z,0.29
2023-01-26T13:42:52.115Z,0.25
2023-01-26T13:45:28.997Z,0.18
2023-01-26T13:48:03.722Z,0.04
2023-01-26T13:50:37.251Z,0.06
2023-01-26T13:53:40.736Z,0.15
2023-01-26T13:56:20.637Z,0.24
2023-01-26T13:58:53.630Z,0.34
2023-01-26T14:01:25.699Z,0.43
2023-01-26T14:04:04.385Z,0.47
2023-01-26T14:06:37.231Z,0.54
2023-01-26T14:09:11.284Z,0.59
2023-01-26T14:11:44.219Z,0.61
2023-01-26T14:14:20.676Z,0.68
2023-01-26T14:16:52.749Z,0.68
2023-01-26T14:19:25.315Z,0.68
2023-01-26T14:21:59.404Z,0.72
2023-01-26T14:24:32.839Z,0.74
2023-01-26T14:27:05.445Z,0.76
2023-01-26T14:29:39.127Z,0.79
2023-01-26T14:32:15.017Z,0.75
2023-01-26T14:34:51.504Z,0.78
2023-01-26T14:37:24.003Z,0.76
2023-01-26T14:40:14.754Z,0.76
2023-01-26T14:42:47.553Z,0.86
2023-01-26T14:45:26.262Z,0.82
2023-01-26T14:48:00.916Z,0.79
2023-01-26T14:50:34.279Z,0.77
2023-01-26T14:53:15.938Z,0.78
2023-01-26T14:55:48.947Z,0.80
2023-01-26T14:58:22.984Z,0.79
2023-01-26T15:00:57.465Z,0.80
2023-01-26T15:03:32.457Z,0.71
2023-01-26T15:06:19.648Z,0.70
2023-01-26T15:08:59.749Z,0.69
2023-01-26T15:11:52.009Z,0.63
2023-01-26T15:14:34.970Z,0.61
2023-01-26T15:17:25.959Z,0.62
2023-01-26T15:19:58.121Z,0.58
2023-01-26T15:22:31.725Z,0.61
2023-01-26T15:25:06.030Z,0.64
2023-01-26T15:27:38.142Z,0.52
2023-01-26T15:30:15.966Z,0.53
2023-01-26T15:32:49.040Z,0.56
2023-01-26T15:35:23.386Z,0.59
2023-01-26T15:38:02.597Z,0.56
2023-01-26T15:40:34.714Z,0.61
2023-01-26T15:43:11.293Z,0.55
2023-01-26T15:45:48.005Z,0.66
2023-01-26T15:48:21.572Z,0.77
2023-01-26T15:50:53.597Z,0.83
2023-01-26T15:53:25.832Z,0.89
2023-01-26T15:56:00.151Z,0.99
2023-01-26T15:58:34.204Z,1.03
2023-01-26T16:01:07.156Z,1.07
2023-01-26T16:03:39.869Z,1.09
2023-01-26T16:06:21.160Z,1.07
2023-01-26T16:08:53.273Z,1.11
2023-01-26T16:11:26.628Z,1.09
2023-01-26T16:14:03.674Z,0.97
2023-01-26T16:16:36.450Z,0.71
2023-01-26T16:19:09.338Z,0.74
2023-01-26T16:21:43.752Z,0.65
2023-01-26T16:24:15.739Z,0.52
2023-01-26T16:26:47.888Z,0.47
2023-01-26T16:29:20.638Z,0.42
2023-01-26T16:31:53.282Z,0.37
2023-01-26T16:34:26.129Z,0.23
2023-01-26T16:36:58.536Z,0.18
2023-01-26T16:39:30.513Z,0.18
2023-01-26T16:42:02.939Z,-0.15
2023-01-26T16:44:35.079Z,-0.24
2023-01-26T16:47:08.866Z,-0.23
2023-01-26T16:49:41.610Z,-0.32
2023-01-26T16:52:13.788Z,-0.50
2023-01-26T16:54:47.580Z,-0.65
2023-01-26T16:57:19.727Z,-0.79
2023-01-26T16:59:51.726Z,-0.82
2023-01-26T17:02:25.334Z,-0.82
2023-01-26T17:04:58.036Z,-0.86
2023-01-26T17:07:30.094Z,-0.92
2023-01-26T17:10:02.201Z,-0.90
2023-01-26T17:12:34.473Z,-1.00
2023-01-26T17:15:07.291Z,-1.08
2023-01-26T17:17:39.398Z,-1.09
2023-01-26T17:20:19.265Z,-1.26
2023-01-26T17:22:51.950Z,-1.17
2023-01-26T17:25:24.092Z,-1.15
2023-01-26T17:27:56.117Z,-1.18
2023-01-26T17:30:28.306Z,-1.02
2023-01-26T17:33:01.238Z,-1.09
2023-01-26T17:35:34.021Z,-1.08
2023-01-26T17:38:06.755Z,-1.03
2023-01-26T17:40:38.783Z,-1.03
2023-01-26T17:43:10.871Z,-1.21
2023-01-26T17:45:42.969Z,-1.44
2023-01-26T17:48:15.397Z,-1.23
2023-01-26T17:50:48.475Z,-1.30
2023-01-26T17:53:23.720Z,-1.40
2023-01-26T17:55:55.740Z,-1.41
2023-01-26T17:58:28.081Z,-1.63
2023-01-26T18:01:00.202Z,-1.67
2023-01-26T18:03:33.021Z,-1.79
2023-01-26T18:06:06.068Z,-1.79
2023-01-26T18:08:38.463Z,-1.80
2023-01-26T18:11:11.569Z,-1.81
2023-01-26T18:13:43.996Z,-1.77
2023-01-26T18:16:17.426Z,-1.77
2023-01-26T18:18:53.948Z,-1.73
2023-01-26T18:21:28.349Z,-1.84
2023-01-26T18:24:01.805Z,-1.72
2023-01-26T18:26:35.015Z,-1.63
2023-01-26T18:29:07.192Z,-1.72
2023-01-26T18:31:40.266Z,-1.67
2023-01-26T18:34:12.669Z,-1.64
2023-01-26T18:36:46.802Z,-1.62
2023-01-26T18:39:19.083Z,-1.51
2023-01-26T18:41:51.251Z,-1.55
2023-01-26T18:44:27.132Z,-1.50
2023-01-26T18:46:59.804Z,-1.57
2023-01-26T18:49:32.475Z,-1.56
2023-01-26T18:52:05.185Z,-1.73
2023-01-26T18:54:37.291Z,-1.73
2023-01-26T18:57:09.318Z,-1.78
2023-01-26T18:59:41.423Z,-1.85
2023-01-26T19:02:14.382Z,-1.84
2023-01-26T19:04:46.738Z,-2.00
2023-01-26T19:07:19.692Z,-2.02
2023-01-26T19:09:52.924Z,-1.92
2023-01-26T19:12:25.490Z,-1.92
2023-01-26T19:14:58.056Z,-2.02
2023-01-26T19:17:30.248Z,-2.02
2023-01-26T19:20:02.416Z,-2.13
2023-01-26T19:22:35.143Z,-2.22
2023-01-26T19:25:08.033Z,-2.22
2023-01-26T19:27:40.153Z,-2.23
2023-01-26T19:30:13.132Z,-2.03
2023-01-26T19:33:01.976Z,-1.90
2023-01-26T19:35:36.442Z,-1.84
2023-01-26T19:38:09.430Z,-2.08
2023-01-26T19:40:43.765Z,-2.19
2023-01-26T19:43:18.324Z,-2.10
2023-01-26T19:45:52.531Z,-2.19
2023-01-26T19:48:26.214Z,-2.27
2023-01-26T19:50:59.368Z,-2.27
2023-01-26T19:53:32.612Z,-2.21
2023-01-26T19:56:05.372Z,-2.20
2023-01-26T19:58:37.880Z,-2.24
2023-01-26T20:01:11.452Z,-2.19
2023-01-26T20:03:44.170Z,-2.06
2023-01-26T20:06:17.159Z,-2.03
2023-01-26T20:08:50.280Z,-1.98
2023-01-26T20:11:25.944Z,-1.97
2023-01-26T20:14:00.041Z,-1.93
2023-01-26T20:16:33.532Z,-1.92
2023-01-26T20:19:05.771Z,-1.93
2023-01-26T20:21:38.103Z,-1.97
2023-01-26T20:24:12.216Z,-1.95
2023-01-26T20:26:44.357Z,-1.99
2023-01-26T20:29:17.201Z,-2.06
2023-01-26T20:31:49.791Z,-2.05
2023-01-26T20:34:21.951Z,-2.07
2023-01-26T20:36:59.347Z,-2.10
2023-01-26T20:39:32.178Z,-1.88
2023-01-26T20:42:04.429Z,-1.77
2023-01-26T20:44:37.087Z,-1.76
2023-01-26T20:47:09.208Z,-1.62
2023-01-26T20:49:41.239Z,-1.60
2023-01-26T20:52:13.390Z,-1.66
2023-01-26T20:54:46.166Z,-1.55
2023-01-26T20:57:18.471Z,-1.49
2023-01-26T20:59:50.495Z,-1.50
2023-01-26T21:02:23.666Z,-1.59
2023-01-26T21:04:55.911Z,-2.09
2023-01-26T21:07:28.046Z,-2.08
2023-01-26T21:10:00.922Z,-1.96
2023-01-26T21:12:34.610Z,-2.07
2023-01-26T21:15:07.092Z,-2.13
2023-01-26T21:17:39.178Z,-2.10
2023-01-26T21:20:11.852Z,-2.23
2023-01-26T21:22:44.123Z,-2.19
2023-01-26T21:25:16.815Z,-2.25
2023-01-26T21:27:48.934Z,-2.32
2023-01-26T21:30:21.116Z,-2.30
2023-01-26T21:32:53.238Z,-2.25
2023-01-26T21:35:25.342Z,-2.18
2023-01-26T21:37:58.372Z,-2.17
2023-01-26T21:40:31.064Z,-2.07
2023-01-26T21:43:03.212Z,-2.04
2023-01-26T21:45:53.385Z,-2.15
2023-01-26T21:48:31.205Z,-2.35
2023-01-26T21:51:21.690Z,-2.19
2023-01-26T21:53:53.746Z,-2.16
2023-01-26T21:56:27.530Z,-2.11
2023-01-26T21:59:02.512Z,-2.10
2023-01-26T22:01:35.997Z,-2.28
2023-01-26T22:04:09.340Z,-2.12
2023-01-26T22:06:41.575Z,-2.14
2023-01-26T22:09:14.554Z,-2.12
2023-01-26T22:11:49.823Z,-2.10
2023-01-26T22:14:22.731Z,-2.21
2023-01-26T22:16:54.771Z,-2.19
2023-01-26T22:19:26.822Z,-2.15
2023-01-26T22:21:58.877Z,-2.15
2023-01-26T22:24:31.008Z,-2.20
2023-01-26T22:27:04.510Z,-2.19
2023-01-26T22:29:36.680Z,-2.13
2023-01-26T22:32:08.738Z,-2.03
2023-01-26T22:34:40.917Z,-1.98
2023-01-26T22:37:13.136Z,-2.06
2023-01-26T22:39:45.401Z,-2.04
2023-01-26T22:42:18.623Z,-2.10
2023-01-26T22:44:50.715Z,-2.06
2023-01-26T22:47:22.809Z,-2.06
2023-01-26T22:49:54.861Z,-1.96
2023-01-26T22:52:26.980Z,-1.90
2023-01-26T22:54:59.059Z,-1.82
2023-01-26T22:57:31.805Z,-2.10
2023-01-26T23:00:05.395Z,-1.99
2023-01-26T23:02:37.534Z,-1.91
2023-01-26T23:05:09.602Z,-1.84
2023-01-26T23:07:41.667Z,-1.75
2023-01-26T23:10:14.101Z,-1.71
2023-01-26T23:12:47.009Z,-1.79
2023-01-26T23:15:19.314Z,-1.83
2023-01-26T23:17:52.045Z,-1.74
2023-01-26T23:20:24.153Z,-1.85
2023-01-26T23:22:56.215Z,-1.71
2023-01-26T23:25:46.437Z,-1.72
2023-01-26T23:28:19.964Z,-1.68
2023-01-26T23:30:52.938Z,-1.62
2023-01-26T23:33:25.641Z,-1.65
2023-01-26T23:35:57.676Z,-1.67
2023-01-26T23:38:30.643Z,-1.60
2023-01-26T23:41:04.639Z,-1.59
2023-01-26T23:43:37.761Z,-1.62
2023-01-26T23:46:10.462Z,-1.82
2023-01-26T23:48:42.540Z,-1.79
2023-01-26T23:51:14.816Z,-1.70
2023-01-26T23:53:46.847Z,-1.68
2023-01-26T23:56:18.988Z,-1.77
2023-01-26T23:58:51.700Z,-1.94
